Time;durP1;ratioP1;P1;durP2;ratioP2;P2;SDS_P1;SDS_P2;PMS_P1;PMS_P2;Temp;Humidity;BMP_temperature;BMP_pressure;BME280_temperature;BME280_humidity;BME280_pressure;Samples;Min_cycle;Max_cycle;Signal;HPM_P1;HPM_P2
2024/03/04 05:03:15;;;;;;;2.53;2.33;;;1.90;97.30;;;;;;4828006;29;20884;-86
2024/03/04 05:05:43;;;;;;;2.47;2.27;;;1.90;97.30;;;;;;4807247;29;20999;-87
2024/03/04 05:08:24;;;;;;;2.40;2.20;;;1.90;97.30;;;;;;4823166;29;20437;-87
2024/03/04 05:11:25;;;;;;;4.63;2.80;;;2.00;97.30;;;;;;4837315;29;20540;-87
2024/03/04 05:13:53;;;;;;;2.43;2.27;;;1.90;97.30;;;;;;4715934;30;20430;-85
2024/03/04 05:16:25;;;;;;;4.07;2.47;;;1.90;97.30;;;;;;4702287;30;20828;-87
2024/03/04 05:19:12;;;;;;;1.90;1.80;;;1.90;97.30;;;;;;4718806;30;20441;-84
2024/03/04 05:22:04;;;;;;;;;;;;;;;;;;;;;
2024/03/04 05:24:34;;;;;;;16.80;4.40;;;1.80;97.30;;;;;;4716263;30;20435;-87
2024/03/04 05:27:35;;;;;;;4.13;3.90;;;1.90;97.30;;;;;;4710714;30;20905;-88
2024/03/04 05:30:04;;;;;;;2.70;1.50;;;1.90;97.30;;;;;;4731366;29;20489;-86
2024/03/04 05:32:29;;;;;;;3.67;2.10;;;2.00;97.30;;;;;;4850002;23;20499;-72
2024/03/04 05:34:55;;;;;;;2.20;2.00;;;2.00;97.30;;;;;;4867083;29;20437;-72
2024/03/04 05:37:21;;;;;;;2.77;1.73;;;2.00;97.30;;;;;;4847971;29;20189;-72
2024/03/04 05:39:47;;;;;;;1.87;1.77;;;1.90;97.30;;;;;;4838748;29;20678;-72
2024/03/04 05:42:13;;;;;;;2.30;2.10;;;2.00;97.30;;;;;;4842123;29;20460;-72
2024/03/04 05:44:39;;;;;;;6.33;3.13;;;2.00;97.30;;;;;;4852549;29;20225;-72
2024/03/04 05:47:04;;;;;;;3.00;2.70;;;1.90;97.30;;;;;;4840470;29;20506;-72
2024/03/04 05:49:30;;;;;;;2.67;2.47;;;1.90;97.30;;;;;;4839663;29;20470;-72
2024/03/04 05:51:58;;;;;;;2.83;1.83;;;2.00;97.30;;;;;;4850421;29;20205;-70
2024/03/04 05:54:24;;;;;;;1.87;1.77;;;2.00;97.30;;;;;;4838486;29;20670;-70
2024/03/04 05:56:49;;;;;;;4.33;4.10;;;2.00;97.30;;;;;;4841818;29;20591;-70
2024/03/04 05:59:15;;;;;;;2.30;1.83;;;1.90;97.30;;;;;;4849908;29;20280;-70
2024/03/04 06:01:42;;;;;;;1.27;1.20;;;2.00;97.30;;;;;;4843052;29;20214;-70
2024/03/04 06:04:08;;;;;;;1.73;1.60;;;2.10;97.30;;;;;;4849277;29;20253;-70
2024/03/04 06:06:33;;;;;;;2.20;2.00;;;2.10;97.30;;;;;;4845471;29;20857;-70
2024/03/04 06:09:03;;;;;;;2.77;2.57;;;2.20;97.30;;;;;;4850549;29;20187;-70
2024/03/04 06:11:29;;;;;;;5.43;2.40;;;2.20;97.30;;;;;;4858308;29;20206;-70
2024/03/04 06:13:54;;;;;;;1.93;1.83;;;2.20;97.30;;;;;;4851721;29;20440;-70
2024/03/04 06:16:20;;;;;;;3.40;3.00;;;2.30;97.30;;;;;;4860051;29;20710;-70
2024/03/04 06:18:46;;;;;;;2.27;2.07;;;2.30;97.30;;;;;;4846659;29;20226;-70
2024/03/04 06:21:12;;;;;;;4.90;3.73;;;2.40;97.30;;;;;;4845232;29;20226;-70
2024/03/04 06:23:38;;;;;;;3.97;2.73;;;2.40;97.30;;;;;;4851797;29;20855;-70
2024/03/04 06:26:08;;;;;;;4.50;1.30;;;2.40;97.30;;;;;;4857477;29;20205;-70
2024/03/04 06:28:34;;;;;;;2.00;1.40;;;2.40;97.30;;;;;;4843276;29;20691;-70
2024/03/04 06:31:00;;;;;;;6.30;2.87;;;2.50;97.30;;;;;;4870668;23;21106;-83
2024/03/04 06:33:25;;;;;;;1.70;1.60;;;2.50;97.30;;;;;;4848795;29;20438;-85
2024/03/04 06:35:51;;;;;;;3.47;2.97;;;2.50;97.30;;;;;;4846882;29;20669;-83
2024/03/04 06:38:17;;;;;;;2.37;2.20;;;2.60;97.30;;;;;;4862305;29;20220;-85
2024/03/04 06:40:43;;;;;;;3.60;3.40;;;2.60;97.30;;;;;;4846671;29;20221;-83
2024/03/04 06:43:09;;;;;;;2.17;2.00;;;2.60;97.30;;;;;;4852923;29;20434;-83
2024/03/04 06:45:36;;;;;;;3.00;2.50;;;2.70;97.30;;;;;;4846189;29;20658;-85
2024/03/04 06:48:03;;;;;;;5.30;3.10;;;2.70;97.30;;;;;;4861441;29;20175;-84
2024/03/04 06:50:29;;;;;;;1.60;1.50;;;2.80;97.30;;;;;;4846473;29;20453;-83
2024/03/04 06:52:54;;;;;;;1.90;1.40;;;2.80;97.30;;;;;;4848092;29;20431;-83
2024/03/04 06:55:20;;;;;;;2.20;2.00;;;2.80;97.30;;;;;;4842454;29;20420;-83
2024/03/04 06:57:46;;;;;;;2.47;2.00;;;2.90;97.30;;;;;;4844229;29;20183;-83
2024/03/04 07:00:12;;;;;;;3.00;2.83;;;2.90;97.30;;;;;;4862721;29;20480;-84
2024/03/04 07:02:37;;;;;;;2.33;1.93;;;3.00;97.30;;;;;;4861956;29;20215;-83
2024/03/04 07:05:03;;;;;;;9.93;3.60;;;3.00;97.30;;;;;;4863212;29;20981;-83
2024/03/04 07:07:29;;;;;;;1.93;1.83;;;3.10;97.30;;;;;;4862031;29;20218;-83
2024/03/04 07:09:54;;;;;;;3.97;3.77;;;3.10;97.30;;;;;;4862835;29;20546;-83
2024/03/04 07:12:20;;;;;;;3.10;2.60;;;3.20;97.30;;;;;;4846549;29;20553;-83
2024/03/04 07:14:45;;;;;;;3.87;2.50;;;3.30;97.30;;;;;;4846499;29;20355;-83
2024/03/04 07:17:11;;;;;;;2.17;2.00;;;3.30;97.30;;;;;;4844564;29;20665;-83
2024/03/04 07:19:36;;;;;;;2.90;2.03;;;3.30;97.30;;;;;;4846004;29;20214;-83
2024/03/04 07:22:03;;;;;;;7.03;2.90;;;3.10;97.30;;;;;;4844524;29;20201;-83
2024/03/04 07:24:28;;;;;;;4.10;2.40;;;3.20;97.30;;;;;;4846645;29;20242;-83
2024/03/04 07:26:54;;;;;;;2.17;2.00;;;3.30;97.30;;;;;;4862874;29;20871;-83
2024/03/04 07:29:19;;;;;;;1.40;1.30;;;3.40;97.30;;;;;;4844809;29;20175;-83
2024/03/04 07:31:46;;;;;;;2.20;2.00;;;3.50;97.30;;;;;;4879042;29;20570;-85
2024/03/04 07:34:11;;;;;;;1.83;1.73;;;3.50;97.30;;;;;;4863941;29;20193;-83
2024/03/04 07:36:37;;;;;;;2.67;2.47;;;3.60;97.30;;;;;;4861559;29;20496;-83
2024/03/04 07:39:03;;;;;;;5.93;3.00;;;3.60;97.30;;;;;;4864148;29;20671;-83
2024/03/04 07:41:29;;;;;;;1.60;1.50;;;3.70;97.30;;;;;;4864404;29;20206;-83
2024/03/04 07:43:55;;;;;;;11.63;4.10;;;3.70;97.30;;;;;;4864898;29;20418;-83
2024/03/04 07:46:21;;;;;;;2.83;2.63;;;3.70;97.30;;;;;;4863050;29;20585;-83
2024/03/04 07:48:47;;;;;;;2.60;2.13;;;3.70;97.30;;;;;;4863488;29;20427;-84
2024/03/04 07:51:12;;;;;;;2.90;2.50;;;3.80;97.30;;;;;;4862961;29;20230;-83
2024/03/04 07:53:38;;;;;;;2.47;2.27;;;3.90;97.30;;;;;;4863078;29;20220;-83
2024/03/04 07:56:03;;;;;;;4.43;1.90;;;3.80;97.30;;;;;;4864569;29;20289;-83
2024/03/04 07:58:29;;;;;;;4.90;4.47;;;3.80;97.30;;;;;;4865317;29;20204;-85
2024/03/04 08:00:54;;;;;;;5.10;2.97;;;3.90;97.30;;;;;;4864146;29;20269;-83
2024/03/04 08:03:20;;;;;;;2.60;2.40;;;3.90;97.30;;;;;;4862946;29;20190;-83
2024/03/04 08:05:47;;;;;;;3.53;3.33;;;4.00;97.30;;;;;;4877315;29;20296;-86
2024/03/04 08:08:12;;;;;;;2.93;2.33;;;4.10;97.30;;;;;;4861792;29;20190;-82
2024/03/04 08:10:38;;;;;;;4.40;3.77;;;4.20;97.30;;;;;;4880914;29;20457;-83
2024/03/04 08:13:04;;;;;;;3.27;3.00;;;4.30;97.30;;;;;;4863062;29;20185;-82
2024/03/04 08:15:30;;;;;;;3.50;2.90;;;4.40;97.30;;;;;;4880463;29;20594;-83
2024/03/04 08:17:55;;;;;;;12.07;1.80;;;4.40;97.30;;;;;;4878772;29;20463;-83
2024/03/04 08:20:21;;;;;;;1.67;1.57;;;4.30;97.30;;;;;;4859671;29;20210;-83
2024/03/04 08:22:48;;;;;;;6.53;3.53;;;4.30;97.30;;;;;;4859605;29;20648;-83
2024/03/04 08:25:16;;;;;;;2.57;2.03;;;4.40;97.30;;;;;;4862982;29;20426;-83
2024/03/04 08:27:42;;;;;;;2.53;2.33;;;4.40;97.30;;;;;;4879240;29;20493;-85
2024/03/04 08:30:09;;;;;;;2.90;2.60;;;4.40;97.30;;;;;;4861504;29;20517;-83
2024/03/04 08:32:35;;;;;;;13.17;5.00;;;4.40;97.30;;;;;;4862917;29;20189;-83
2024/03/04 08:35:00;;;;;;;4.07;2.57;;;4.50;97.30;;;;;;4878460;29;20422;-83
2024/03/04 08:37:29;;;;;;;2.00;1.93;;;4.60;97.30;;;;;;4862943;29;20264;-83
2024/03/04 08:39:58;;;;;;;9.00;3.60;;;4.60;97.30;;;;;;4861334;29;20229;-83
2024/03/04 08:42:24;;;;;;;3.03;2.83;;;4.70;97.30;;;;;;4860267;29;20462;-83
2024/03/04 08:44:50;;;;;;;5.40;3.00;;;4.80;97.30;;;;;;4859141;29;20458;-83
2024/03/04 08:47:15;;;;;;;2.60;2.40;;;4.80;97.30;;;;;;4862259;29;20217;-83
2024/03/04 08:49:40;;;;;;;3.90;3.70;;;4.80;97.30;;;;;;4861299;29;20629;-85
2024/03/04 08:52:06;;;;;;;3.10;2.90;;;4.80;97.30;;;;;;4862195;29;20182;-84
2024/03/04 08:54:32;;;;;;;8.60;3.43;;;4.80;97.30;;;;;;4877928;29;20716;-83
2024/03/04 08:56:57;;;;;;;4.80;3.50;;;4.80;97.30;;;;;;4861056;29;20182;-83
2024/03/04 08:59:23;;;;;;;2.97;1.83;;;4.80;97.30;;;;;;4861533;29;20503;-83
2024/03/04 09:01:48;;;;;;;10.47;4.33;;;4.90;97.30;;;;;;4861763;29;20300;-84
2024/03/04 09:04:14;;;;;;;2.97;2.77;;;5.00;97.30;;;;;;4861550;29;20182;-84
2024/03/04 09:06:39;;;;;;;6.77;2.03;;;5.00;97.30;;;;;;4857295;29;20198;-84
2024/03/04 09:09:05;;;;;;;2.87;2.67;;;5.10;97.30;;;;;;4873211;29;20250;-84
2024/03/04 09:11:32;;;;;;;6.17;2.50;;;5.20;97.30;;;;;;4877637;29;20201;-84
2024/03/04 09:13:58;;;;;;;4.87;2.77;;;5.20;97.30;;;;;;4877132;29;20190;-84
2024/03/04 09:16:24;;;;;;;3.40;3.20;;;5.30;97.30;;;;;;4860354;29;20960;-84
2024/03/04 09:18:49;;;;;;;3.70;2.40;;;5.30;97.30;;;;;;4860737;29;20453;-85
2024/03/04 09:21:15;;;;;;;3.70;2.37;;;5.30;97.30;;;;;;4875736;29;20261;-84
2024/03/04 09:23:41;;;;;;;3.23;3.07;;;5.30;97.30;;;;;;4857949;29;20343;-84
2024/03/04 09:26:10;;;;;;;4.60;3.27;;;5.20;97.30;;;;;;4859072;29;20538;-84
2024/03/04 09:28:36;;;;;;;1.20;1.10;;;5.20;97.30;;;;;;4877213;29;20257;-84
2024/03/04 09:31:01;;;;;;;3.40;2.73;;;5.20;97.30;;;;;;4860190;29;20470;-84
2024/03/04 09:33:27;;;;;;;3.43;2.30;;;5.30;97.30;;;;;;4857835;29;20423;-84
2024/03/04 09:35:53;;;;;;;2.50;2.30;;;5.30;97.30;;;;;;4873034;29;20202;-84
2024/03/04 09:38:19;;;;;;;4.67;4.37;;;5.40;97.30;;;;;;4868031;29;20182;-85
2024/03/04 09:40:51;;;;;;;3.03;2.83;;;5.50;97.30;;;;;;4857235;29;20354;-84
2024/03/04 09:43:20;;;;;;;5.07;2.93;;;5.50;97.30;;;;;;4853062;29;20426;-84
2024/03/04 09:45:49;;;;;;;13.93;4.13;;;5.60;97.30;;;;;;4859514;29;20476;-84
2024/03/04 09:48:16;;;;;;;4.43;3.97;;;5.50;97.30;;;;;;4876950;29;20454;-85
2024/03/04 09:50:41;;;;;;;1.60;1.50;;;5.50;97.30;;;;;;4859933;29;20457;-85
2024/03/04 09:53:09;;;;;;;6.43;3.13;;;5.50;97.30;;;;;;4862047;29;20423;-85
2024/03/04 09:55:35;;;;;;;2.07;1.93;;;5.60;97.30;;;;;;4862508;29;20225;-84
2024/03/04 09:58:01;;;;;;;3.07;2.87;;;5.60;97.30;;;;;;4866442;29;20466;-84
2024/03/04 10:00:28;;;;;;;4.23;2.63;;;5.60;97.30;;;;;;4887776;29;20209;-84
2024/03/04 10:02:55;;;;;;;5.23;2.73;;;5.70;97.30;;;;;;4879683;29;20862;-84
2024/03/04 10:05:21;;;;;;;5.80;3.17;;;5.70;97.30;;;;;;4867700;29;20468;-84
2024/03/04 10:07:48;;;;;;;4.53;3.33;;;5.80;97.30;;;;;;4874324;29;20496;-84
2024/03/04 10:10:15;;;;;;;3.77;3.57;;;5.80;97.30;;;;;;4876848;29;20198;-84
2024/03/04 10:12:40;;;;;;;7.53;3.77;;;5.80;97.30;;;;;;4864440;29;20880;-84
2024/03/04 10:15:10;;;;;;;3.93;3.73;;;5.80;97.30;;;;;;4858146;29;20521;-84
2024/03/04 10:17:39;;;;;;;4.33;2.70;;;5.90;97.30;;;;;;4872415;29;20627;-84
2024/03/04 10:20:06;;;;;;;3.63;2.80;;;6.00;97.30;;;;;;4868137;29;20488;-84
2024/03/04 10:22:36;;;;;;;3.23;2.43;;;6.00;97.30;;;;;;4864115;29;20506;-84
2024/03/04 10:25:06;;;;;;;5.20;4.90;;;6.10;97.30;;;;;;4867424;29;20454;-84
2024/03/04 10:27:34;;;;;;;3.80;3.33;;;6.10;97.30;;;;;;4859802;29;20482;-84
2024/03/04 10:30:14;;;;;;;4.50;2.43;;;6.10;97.30;;;;;;4867152;29;20476;-84
2024/03/04 10:32:54;;;;;;;2.40;2.20;;;6.30;97.30;;;;;;4867347;29;20422;-84
2024/03/04 10:35:19;;;;;;;6.03;4.20;;;6.30;97.30;;;;;;4874052;29;20453;-84
2024/03/04 10:37:45;;;;;;;5.03;2.07;;;6.40;97.30;;;;;;4872971;29;20452;-84
2024/03/04 10:40:12;;;;;;;3.43;2.73;;;6.40;97.30;;;;;;4869013;29;20293;-84
2024/03/04 10:42:43;;;;;;;3.70;3.50;;;6.40;97.30;;;;;;4862200;29;20926;-84
2024/03/04 10:45:11;;;;;;;4.10;3.57;;;6.50;97.30;;;;;;4884059;29;20497;-84
2024/03/04 10:47:39;;;;;;;6.63;3.87;;;6.50;97.30;;;;;;4871862;29;20603;-84
2024/03/04 10:50:05;;;;;;;2.13;1.97;;;6.50;97.30;;;;;;4885741;29;20454;-84
2024/03/04 10:52:31;;;;;;;3.20;3.00;;;6.50;97.30;;;;;;4876929;29;20425;-84
2024/03/04 10:54:57;;;;;;;3.47;2.90;;;6.60;97.30;;;;;;4869031;29;20959;-84
2024/03/04 10:57:30;;;;;;;9.40;5.47;;;6.70;97.30;;;;;;4879708;29;20426;-84
2024/03/04 11:02:58;;;;;;;3.80;2.83;;;6.80;97.30;;;;;;4893861;29;20429;-85
2024/03/04 11:05:26;;;;;;;5.13;3.87;;;6.90;97.30;;;;;;4856080;29;20430;-85
2024/03/04 11:08:00;;;;;;;8.70;4.67;;;7.00;97.30;;;;;;4869664;29;20487;-85
2024/03/04 11:10:36;;;;;;;5.80;4.00;;;7.10;97.30;;;;;;4880037;29;20438;-84
2024/03/04 11:13:19;;;;;;;4.07;3.83;;;7.00;97.30;;;;;;4896032;29;20806;-84
2024/03/04 11:15:56;;;;;;;4.30;4.03;;;7.00;97.30;;;;;;4872817;29;20460;-84
2024/03/04 11:18:37;;;;;;;43.63;5.37;;;7.00;97.30;;;;;;4876361;29;20501;-84
2024/03/04 11:21:04;;;;;;;3.57;3.37;;;7.10;97.30;;;;;;4876047;29;20488;-84
2024/03/04 11:23:30;;;;;;;4.97;1.57;;;7.20;97.30;;;;;;4883463;29;20426;-84
2024/03/04 11:25:56;;;;;;;6.13;5.80;;;7.20;97.30;;;;;;4862755;29;20467;-85
2024/03/04 11:28:23;;;;;;;8.80;2.13;;;7.30;97.30;;;;;;4872496;29;20417;-84
2024/03/04 11:30:50;;;;;;;6.80;4.17;;;7.30;97.30;;;;;;4865701;29;20478;-84
2024/03/04 11:33:37;;;;;;;7.67;2.70;;;7.30;97.30;;;;;;4861895;29;20434;-84
2024/03/04 11:36:02;;;;;;;4.70;4.40;;;7.30;97.30;;;;;;4859818;29;20431;-85
2024/03/04 11:38:28;;;;;;;6.67;3.97;;;7.40;97.30;;;;;;4866191;29;20784;-84
2024/03/04 11:40:57;;;;;;;7.40;5.93;;;7.40;97.30;;;;;;4871281;29;20217;-84
2024/03/04 11:43:45;;;;;;;13.10;4.13;;;7.50;97.30;;;;;;4861611;29;20182;-84
2024/03/04 11:46:12;;;;;;;5.30;4.30;;;7.60;97.30;;;;;;4860636;29;20482;-85
2024/03/04 11:48:39;;;;;;;4.77;2.40;;;7.70;97.30;;;;;;4885751;29;20425;-84
2024/03/04 11:51:05;;;;;;;3.63;3.43;;;7.80;97.30;;;;;;4868504;29;20884;-84
2024/03/04 11:53:31;;;;;;;9.80;4.90;;;7.90;97.30;;;;;;4882933;29;20680;-84
2024/03/04 11:55:57;;;;;;;10.40;4.07;;;8.00;97.30;;;;;;4871367;29;20450;-84
2024/03/04 11:58:23;;;;;;;5.00;4.30;;;8.00;97.30;;;;;;4868758;29;20181;-84
2024/03/04 12:00:50;;;;;;;5.53;3.73;;;7.90;97.30;;;;;;4859038;29;20211;-85
2024/03/04 12:03:16;;;;;;;2.77;2.30;;;7.90;97.30;;;;;;4869279;29;20482;-84
2024/03/04 12:05:42;;;;;;;11.70;4.07;;;8.00;97.30;;;;;;4861925;29;20937;-84
2024/03/04 12:08:08;;;;;;;8.23;3.70;;;8.00;97.30;;;;;;4863261;29;20186;-85
2024/03/04 12:10:34;;;;;;;7.17;5.70;;;8.10;97.30;;;;;;4884364;29;20509;-85
2024/03/04 12:13:00;;;;;;;11.47;7.80;;;8.10;97.30;;;;;;4874840;29;20956;-85
2024/03/04 12:15:26;;;;;;;10.23;5.37;;;8.10;97.30;;;;;;4864144;29;20423;-84
2024/03/04 12:17:52;;;;;;;3.33;3.13;;;8.10;97.30;;;;;;4861860;29;20276;-85
2024/03/04 12:20:17;;;;;;;5.30;4.20;;;8.10;97.30;;;;;;4862596;29;20756;-84
2024/03/04 12:22:43;;;;;;;9.23;3.80;;;8.20;97.30;;;;;;4872480;29;20514;-84
2024/03/04 12:25:09;;;;;;;6.47;4.60;;;8.20;97.30;;;;;;4861052;29;20223;-85
2024/03/04 12:27:36;;;;;;;7.43;3.00;;;8.20;97.30;;;;;;4865098;29;20289;-85
2024/03/04 12:30:17;;;;;;;5.90;4.57;;;8.20;97.30;;;;;;4875206;29;20534;-84
2024/03/04 12:32:45;;;;;;;10.00;4.33;;;8.10;97.30;;;;;;4866750;29;20428;-86
2024/03/04 12:35:28;;;;;;;9.67;4.30;;;8.20;97.30;;;;;;4867363;29;20415;-85
2024/03/04 12:37:55;;;;;;;6.33;5.13;;;8.10;97.30;;;;;;4883892;29;20422;-85
2024/03/04 12:40:23;;;;;;;6.77;5.47;;;8.10;97.30;;;;;;4861274;29;21003;-84
2024/03/04 12:43:03;;;;;;;7.17;4.37;;;8.20;97.30;;;;;;4882228;29;20429;-84
2024/03/04 12:45:33;;;;;;;3.20;3.00;;;8.10;97.30;;;;;;4873329;29;20975;-84
2024/03/04 12:47:58;;;;;;;6.10;3.80;;;8.00;97.30;;;;;;4877614;29;20431;-85
2024/03/04 12:50:25;;;;;;;5.20;4.40;;;8.00;97.30;;;;;;4869667;29;20983;-84
2024/03/04 12:52:52;;;;;;;18.93;4.93;;;8.00;97.30;;;;;;4887395;29;20505;-84
2024/03/04 12:55:19;;;;;;;5.63;3.67;;;8.00;97.30;;;;;;4860591;29;20419;-84
2024/03/04 12:57:45;;;;;;;11.07;3.40;;;8.00;97.30;;;;;;4863885;29;20436;-85
2024/03/04 13:00:14;;;;;;;3.53;3.33;;;8.00;97.30;;;;;;4874267;29;20461;-84
2024/03/04 13:02:44;;;;;;;7.63;5.33;;;8.00;97.30;;;;;;4864427;29;20433;-85
2024/03/04 13:05:11;;;;;;;6.00;2.60;;;8.10;97.30;;;;;;4859688;29;20439;-84
2024/03/04 13:07:37;;;;;;;3.70;2.60;;;8.00;97.30;;;;;;4875880;29;20466;-84
2024/03/04 13:10:06;;;;;;;9.57;4.13;;;8.00;97.30;;;;;;4868737;29;20448;-85
2024/03/04 13:12:37;;;;;;;5.07;2.90;;;8.00;97.30;;;;;;4874465;29;20417;-84
2024/03/04 13:15:07;;;;;;;7.80;5.13;;;7.90;97.30;;;;;;4860433;29;20416;-84
2024/03/04 13:17:36;;;;;;;7.27;3.47;;;8.00;97.30;;;;;;4854613;29;20437;-84
2024/03/04 13:20:08;;;;;;;4.73;3.50;;;7.90;97.30;;;;;;4873267;29;20455;-84
2024/03/04 13:22:35;;;;;;;9.67;5.37;;;8.00;97.30;;;;;;4863106;29;20480;-85
2024/03/04 13:25:00;;;;;;;8.83;5.67;;;7.90;97.30;;;;;;4863797;29;20425;-84
2024/03/04 13:27:26;;;;;;;11.90;4.90;;;8.00;97.30;;;;;;4872150;29;20556;-84
2024/03/04 13:29:51;;;;;;;3.90;2.60;;;7.90;97.30;;;;;;4862600;29;20203;-84
2024/03/04 13:32:17;;;;;;;6.53;4.70;;;8.00;97.30;;;;;;4882574;29;20189;-84
2024/03/04 13:34:43;;;;;;;8.77;4.30;;;8.00;97.30;;;;;;4864674;29;20189;-84
2024/03/04 13:37:09;;;;;;;6.87;5.00;;;8.10;97.30;;;;;;4872546;29;20425;-84
2024/03/04 13:39:34;;;;;;;8.50;3.53;;;8.10;97.30;;;;;;4886976;29;20604;-84
2024/03/04 13:42:00;;;;;;;4.80;3.90;;;8.10;97.30;;;;;;4887525;29;20182;-85
2024/03/04 13:44:25;;;;;;;3.70;2.97;;;8.10;97.30;;;;;;4867678;29;20183;-84
2024/03/04 13:46:51;;;;;;;6.03;3.80;;;8.10;97.30;;;;;;4868741;29;20221;-84
2024/03/04 13:49:16;;;;;;;6.90;4.03;;;8.10;97.30;;;;;;4874538;29;20672;-84
2024/03/04 13:51:42;;;;;;;12.17;6.67;;;8.10;97.30;;;;;;4883206;29;20193;-83
2024/03/04 13:54:08;;;;;;;11.00;5.23;;;8.10;97.30;;;;;;4875158;29;20174;-84
2024/03/04 13:56:35;;;;;;;13.10;3.83;;;8.10;97.30;;;;;;4869751;29;20205;-83
2024/03/04 13:59:05;;;;;;;7.90;4.27;;;8.10;97.30;;;;;;4886849;29;20456;-84
2024/03/04 14:01:32;;;;;;;8.83;4.60;;;8.20;97.30;;;;;;4880944;29;20748;-84
2024/03/04 14:03:57;;;;;;;13.00;5.37;;;8.20;97.30;;;;;;4876048;29;20425;-84
2024/03/04 14:06:23;;;;;;;6.50;4.70;;;8.20;97.30;;;;;;4877476;29;20570;-84
2024/03/04 14:08:48;;;;;;;9.67;4.87;;;8.20;97.30;;;;;;4889328;29;20182;-83
2024/03/04 14:11:14;;;;;;;11.40;7.87;;;8.10;97.30;;;;;;4866248;29;20206;-84
2024/03/04 14:13:40;;;;;;;16.77;5.77;;;8.10;97.30;;;;;;4866516;29;20178;-84
2024/03/04 14:16:08;;;;;;;4.40;3.07;;;8.00;97.30;;;;;;4861846;29;20687;-84
2024/03/04 14:18:34;;;;;;;5.00;3.40;;;8.00;97.30;;;;;;4873993;29;20435;-84
2024/03/04 14:21:00;;;;;;;4.97;3.53;;;8.00;97.30;;;;;;4863317;29;20446;-84
2024/03/04 14:23:26;;;;;;;3.87;3.67;;;8.00;97.30;;;;;;4862974;29;20422;-83
2024/03/04 14:25:52;;;;;;;10.30;4.43;;;8.00;97.30;;;;;;4884114;29;20438;-84
2024/03/04 14:28:17;;;;;;;5.67;5.17;;;8.00;97.30;;;;;;4864849;29;20427;-84
2024/03/04 14:30:43;;;;;;;6.63;5.10;;;8.00;97.30;;;;;;4868093;29;20242;-84
2024/03/04 14:33:09;;;;;;;8.03;5.20;;;8.00;97.30;;;;;;4870465;29;20273;-84
2024/03/04 14:35:34;;;;;;;4.97;4.00;;;8.00;97.30;;;;;;4863435;29;20281;-84
2024/03/04 14:38:00;;;;;;;11.37;6.03;;;8.10;97.30;;;;;;4863370;29;20193;-84
2024/03/04 14:40:28;;;;;;;10.27;6.50;;;8.10;97.30;;;;;;4885410;29;20214;-85
2024/03/04 14:42:55;;;;;;;11.13;4.47;;;8.10;97.30;;;;;;4866305;29;20186;-84
2024/03/04 14:45:20;;;;;;;11.63;5.27;;;8.10;97.30;;;;;;4873275;29;20441;-84
2024/03/04 14:47:46;;;;;;;13.50;6.27;;;8.10;97.30;;;;;;4872671;29;20477;-84
2024/03/04 14:50:13;;;;;;;9.40;6.13;;;8.00;97.30;;;;;;4863032;29;20594;-85
2024/03/04 14:52:38;;;;;;;19.57;5.73;;;8.00;97.30;;;;;;4864931;29;20193;-84
2024/03/04 14:55:04;;;;;;;15.20;5.37;;;8.10;97.30;;;;;;4881639;29;20425;-84
2024/03/04 14:57:33;;;;;;;9.17;5.03;;;8.20;97.30;;;;;;4879676;29;20245;-84
2024/03/04 14:59:58;;;;;;;14.23;7.37;;;8.10;97.30;;;;;;4879243;29;20454;-85
2024/03/04 15:02:24;;;;;;;16.93;4.97;;;8.10;97.30;;;;;;4867800;29;20452;-84
2024/03/04 15:04:49;;;;;;;10.43;5.10;;;8.10;97.30;;;;;;4879643;29;20186;-84
2024/03/04 15:07:15;;;;;;;10.33;4.00;;;8.10;97.30;;;;;;4872572;29;20665;-84
2024/03/04 15:09:40;;;;;;;4.93;4.57;;;8.20;97.30;;;;;;4879416;29;20551;-84
2024/03/04 15:12:07;;;;;;;15.23;4.53;;;8.20;97.30;;;;;;4867750;29;20664;-84
2024/03/04 15:14:36;;;;;;;7.23;3.53;;;8.20;97.30;;;;;;4868275;29;20193;-84
2024/03/04 15:17:05;;;;;;;10.97;4.20;;;8.20;97.30;;;;;;4867502;29;20582;-85
2024/03/04 15:19:32;;;;;;;8.37;4.03;;;8.20;97.30;;;;;;4888018;29;20494;-84
2024/03/04 15:21:58;;;;;;;18.07;6.90;;;8.20;97.30;;;;;;4859658;29;20435;-83
2024/03/04 15:24:24;;;;;;;11.17;6.47;;;8.20;97.30;;;;;;4870349;29;20486;-84
2024/03/04 15:26:50;;;;;;;7.47;4.30;;;8.20;97.30;;;;;;4859255;29;20566;-85
2024/03/04 15:29:15;;;;;;;7.43;4.80;;;8.20;97.30;;;;;;4888638;29;20198;-83
2024/03/04 15:31:44;;;;;;;4.77;3.40;;;8.20;97.30;;;;;;4862624;29;20257;-84
2024/03/04 15:34:10;;;;;;;12.57;4.73;;;8.20;97.30;;;;;;4866704;29;20193;-84
2024/03/04 15:36:36;;;;;;;6.20;4.63;;;8.20;97.30;;;;;;4871361;29;20441;-84
2024/03/04 15:39:03;;;;;;;6.50;4.30;;;8.20;97.30;;;;;;4866728;29;20610;-84
2024/03/04 15:41:29;;;;;;;4.00;3.53;;;8.10;97.30;;;;;;4866388;29;20511;-84
2024/03/04 15:43:55;;;;;;;7.70;3.57;;;8.10;97.30;;;;;;4862371;29;20467;-84
2024/03/04 15:46:24;;;;;;;14.17;7.60;;;8.10;97.30;;;;;;4867038;29;20205;-84
2024/03/04 15:48:49;;;;;;;9.10;5.67;;;8.10;97.30;;;;;;4852758;29;20505;-84
2024/03/04 15:51:16;;;;;;;4.40;4.10;;;8.10;97.30;;;;;;4864227;29;20534;-84
2024/03/04 15:53:42;;;;;;;4.30;3.83;;;8.20;97.30;;;;;;4863818;29;20180;-84
2024/03/04 15:56:08;;;;;;;16.07;7.60;;;8.20;97.30;;;;;;4860879;29;20514;-84
2024/03/04 15:58:34;;;;;;;10.50;6.10;;;8.20;97.30;;;;;;4863801;29;20289;-84
2024/03/04 16:01:01;;;;;;;6.97;4.27;;;8.20;97.30;;;;;;4857267;29;20530;-84
2024/03/04 16:03:26;;;;;;;6.33;4.77;;;8.20;97.30;;;;;;4860541;29;20193;-84
2024/03/04 16:05:52;;;;;;;13.27;4.13;;;8.20;97.30;;;;;;4873447;29;20442;-84
2024/03/04 16:08:17;;;;;;;17.30;5.93;;;8.20;97.30;;;;;;4861066;29;20601;-84
2024/03/04 16:10:43;;;;;;;7.70;6.03;;;8.20;97.30;;;;;;4861475;29;20496;-84
2024/03/04 16:13:08;;;;;;;15.57;7.97;;;8.20;97.30;;;;;;4858324;29;20382;-84
2024/03/04 16:15:34;;;;;;;19.37;5.20;;;8.20;97.30;;;;;;4879817;29;20268;-85
2024/03/04 16:17:59;;;;;;;14.47;7.60;;;8.20;97.30;;;;;;4858611;29;20396;-84
2024/03/04 16:20:26;;;;;;;11.30;7.80;;;8.20;97.30;;;;;;4858520;29;20202;-84
2024/03/04 16:22:52;;;;;;;10.60;5.17;;;8.20;97.30;;;;;;4857655;29;20193;-84
2024/03/04 16:25:17;;;;;;;12.27;6.60;;;8.20;97.30;;;;;;4861082;29;20430;-84
2024/03/04 16:27:45;;;;;;;8.03;6.30;;;8.20;97.30;;;;;;4860265;29;20202;-84
2024/03/04 16:30:11;;;;;;;4.40;4.10;;;8.20;97.30;;;;;;4859780;29;20329;-84
2024/03/04 16:32:40;;;;;;;11.93;7.27;;;8.20;97.30;;;;;;4859750;29;20913;-84
2024/03/04 16:35:07;;;;;;;5.70;5.37;;;8.10;97.30;;;;;;4859495;29;20185;-84
2024/03/04 16:37:32;;;;;;;9.97;6.13;;;8.20;97.30;;;;;;4859984;29;20426;-84
2024/03/04 16:40:00;;;;;;;9.30;5.60;;;8.20;97.30;;;;;;4877450;29;20438;-84
2024/03/04 16:42:25;;;;;;;13.33;5.67;;;8.20;97.30;;;;;;4858973;29;20590;-84
2024/03/04 16:44:51;;;;;;;16.60;5.93;;;8.20;97.30;;;;;;4860430;29;20461;-84
2024/03/04 16:47:17;;;;;;;11.53;4.83;;;8.20;97.30;;;;;;4877009;29;20447;-82
2024/03/04 16:49:46;;;;;;;12.00;5.13;;;8.10;97.30;;;;;;4860536;29;20200;-84
2024/03/04 16:52:12;;;;;;;14.37;5.57;;;8.10;97.30;;;;;;4877160;29;20551;-84
2024/03/04 16:54:37;;;;;;;16.53;4.83;;;8.10;97.30;;;;;;4879305;29;20429;-84
2024/03/04 16:57:03;;;;;;;17.43;8.00;;;8.10;97.30;;;;;;4874144;29;20438;-83
2024/03/04 16:59:29;;;;;;;11.43;5.37;;;8.00;97.30;;;;;;4861181;29;20197;-84
2024/03/04 17:01:54;;;;;;;11.53;6.47;;;8.00;97.30;;;;;;4865071;29;20193;-85
2024/03/04 17:04:20;;;;;;;15.77;7.60;;;8.00;97.30;;;;;;4877563;29;20190;-84
2024/03/04 17:06:46;;;;;;;12.00;6.47;;;8.00;97.30;;;;;;4861041;29;20734;-84
2024/03/04 17:09:12;;;;;;;4.93;3.40;;;8.00;97.30;;;;;;4857587;29;20427;-84
2024/03/04 17:11:38;;;;;;;9.17;8.67;;;8.00;97.30;;;;;;4853597;29;20262;-84
2024/03/04 17:14:03;;;;;;;12.87;6.30;;;8.00;97.30;;;;;;4864096;29;20192;-84
2024/03/04 17:16:30;;;;;;;5.50;3.80;;;8.00;97.30;;;;;;4851387;29;20514;-84
2024/03/04 17:18:56;;;;;;;7.60;5.63;;;8.00;97.30;;;;;;4852209;29;20189;-84
2024/03/04 17:21:21;;;;;;;10.90;6.83;;;8.00;97.30;;;;;;4860630;29;20454;-84
2024/03/04 17:23:47;;;;;;;20.23;7.00;;;8.00;97.30;;;;;;4857307;29;20213;-84
2024/03/04 17:26:12;;;;;;;9.43;7.23;;;8.00;97.30;;;;;;4860425;29;20389;-84
2024/03/04 17:28:38;;;;;;;5.17;4.97;;;8.00;97.30;;;;;;4868787;29;20222;-84
2024/03/04 17:31:04;;;;;;;14.37;5.07;;;8.00;97.30;;;;;;4857281;29;20625;-84
2024/03/04 17:33:29;;;;;;;21.83;9.30;;;8.00;97.30;;;;;;4880781;29;20229;-84
2024/03/04 17:35:55;;;;;;;12.43;7.47;;;8.00;97.30;;;;;;4857563;29;20418;-84
2024/03/04 17:38:21;;;;;;;10.00;4.80;;;7.90;97.30;;;;;;4860933;29;20234;-84
2024/03/04 17:40:46;;;;;;;11.70;7.20;;;7.90;97.30;;;;;;4857221;29;20586;-84
2024/03/04 17:43:11;;;;;;;18.43;6.57;;;7.90;97.30;;;;;;4857304;29;20230;-84
2024/03/04 17:45:37;;;;;;;10.93;7.63;;;7.90;97.30;;;;;;4862009;29;20174;-84
2024/03/04 17:48:04;;;;;;;18.73;10.07;;;7.90;97.30;;;;;;4874063;29;20699;-85
2024/03/04 17:50:29;;;;;;;6.30;5.27;;;7.90;97.30;;;;;;4859245;29;20198;-84
2024/03/04 17:52:55;;;;;;;13.33;8.03;;;7.90;97.30;;;;;;4856370;29;20957;-84
2024/03/04 17:55:20;;;;;;;11.90;7.43;;;7.90;97.30;;;;;;4856100;29;20178;-84
2024/03/04 17:57:46;;;;;;;8.47;7.43;;;7.90;97.30;;;;;;4865737;29;20234;-84
2024/03/04 18:00:12;;;;;;;15.20;8.87;;;7.90;97.30;;;;;;4864155;29;20260;-84